Time;durP1;ratioP1;P1;durP2;ratioP2;P2;SDS_P1;SDS_P2;PMS_P1;PMS_P2;Temp;Humidity;BMP_temperature;BMP_pressure;BME280_temperature;BME280_humidity;BME280_pressure;Samples;Min_cycle;Max_cycle;Signal;HPM_P1;HPM_P2
2023/08/08 00:02:57;;;;;;;8.65;5.40;;;;;;;;;;10369177;28;19945;-84
2023/08/08 00:08:06;;;;;;;;;;;;;;;;;;10321467;28;20080;-86
2023/08/08 00:13:10;;;;;;;7.50;5.57;;;;;;;;;;10332607;28;19921;-87
2023/08/08 00:18:11;;;;;;;8.98;5.90;;;;;;;;;;10329203;28;20064;-85
2023/08/08 00:23:13;;;;;;;6.97;5.03;;;;;;;;;;10337725;28;20116;-84
2023/08/08 00:28:15;;;;;;;10.13;6.93;;;;;;;;;;10317095;28;20057;-85
2023/08/08 00:33:16;;;;;;;7.45;5.63;;;;;;;;;;10354969;28;21135;-84
2023/08/08 00:38:18;;;;;;;7.85;5.47;;;;;;;;;;10326404;28;20030;-86
2023/08/08 00:43:20;;;;;;;8.73;5.80;;;;;;;;;;10344125;28;20141;-86
2023/08/08 00:48:21;;;;;;;9.77;6.82;;;;;;;;;;10328762;28;20080;-87
2023/08/08 00:53:27;;;;;;;9.02;6.07;;;;;;;;;;10339391;28;20053;-87
2023/08/08 00:58:28;;;;;;;7.60;6.22;;;;;;;;;;10350244;28;20049;-87
2023/08/08 01:03:30;;;;;;;8.55;6.95;;;;;;;;;;10335602;28;20060;-86
2023/08/08 01:08:49;;;;;;;8.07;6.00;;;;;;;;;;10332482;28;20053;-89
2023/08/08 01:13:51;;;;;;;8.40;6.82;;;;;;;;;;10341588;28;20113;-86
2023/08/08 01:18:52;;;;;;;12.07;6.72;;;;;;;;;;10332109;28;20045;-84
2023/08/08 01:24:19;;;;;;;9.05;6.90;;;;;;;;;;10323594;28;20061;-85
2023/08/08 01:29:22;;;;;;;8.80;6.88;;;;;;;;;;10317656;28;20136;-86
2023/08/08 01:34:25;;;;;;;8.30;6.38;;;;;;;;;;10330907;28;20057;-85
2023/08/08 01:39:29;;;;;;;8.18;6.30;;;;;;;;;;10329430;28;20049;-85
2023/08/08 01:44:32;;;;;;;8.30;5.85;;;;;;;;;;10311485;28;20736;-84
2023/08/08 01:49:33;;;;;;;6.93;5.65;;;;;;;;;;10312466;28;20042;-85
2023/08/08 01:54:36;;;;;;;6.72;5.15;;;;;;;;;;10312028;28;20061;-83
2023/08/08 01:59:39;;;;;;;6.55;5.72;;;;;;;;;;10313511;28;20132;-83
2023/08/08 02:04:39;;;;;;;7.97;6.43;;;;;;;;;;10328212;28;20106;-84
2023/08/08 02:09:40;;;;;;;6.40;5.57;;;;;;;;;;10331985;28;20057;-86
2023/08/08 02:14:42;;;;;;;7.63;5.90;;;;;;;;;;10333517;28;20046;-85
2023/08/08 02:19:43;;;;;;;6.97;6.28;;;;;;;;;;10339611;28;20046;-85
2023/08/08 02:24:43;;;;;;;6.45;5.75;;;;;;;;;;10362258;28;20026;-87
2023/08/08 02:29:45;;;;;;;6.05;5.45;;;;;;;;;;10342036;28;20052;-85
2023/08/08 02:34:45;;;;;;;6.93;5.60;;;;;;;;;;10322004;28;20053;-86
2023/08/08 02:39:47;;;;;;;6.82;5.57;;;;;;;;;;10355506;28;20097;-85
2023/08/08 02:44:49;;;;;;;7.50;5.55;;;;;;;;;;10338011;28;20062;-84
2023/08/08 02:49:53;;;;;;;5.55;4.90;;;;;;;;;;10301600;28;20533;-85
2023/08/08 02:54:55;;;;;;;6.95;5.93;;;;;;;;;;10334136;28;20046;-85
2023/08/08 02:59:57;;;;;;;6.37;5.27;;;;;;;;;;10329184;28;20074;-85
2023/08/08 03:04:58;;;;;;;7.20;4.95;;;;;;;;;;10318301;28;20064;-85
2023/08/08 03:09:59;;;;;;;8.43;5.53;;;;;;;;;;10313337;28;20053;-84
2023/08/08 03:15:00;;;;;;;5.38;4.60;;;;;;;;;;10326265;28;20049;-86
2023/08/08 03:20:05;;;;;;;7.55;5.57;;;;;;;;;;10307442;28;20046;-84
2023/08/08 03:25:07;;;;;;;6.13;4.63;;;;;;;;;;10302516;28;20058;-84
2023/08/08 03:30:09;;;;;;;6.10;4.53;;;;;;;;;;10329401;28;20044;-85
2023/08/08 03:35:14;;;;;;;4.65;4.25;;;;;;;;;;10307103;28;20569;-84
2023/08/08 03:40:16;;;;;;;5.38;4.40;;;;;;;;;;10304414;28;20053;-85
2023/08/08 03:45:17;;;;;;;5.40;4.60;;;;;;;;;;10325652;28;20066;-85
2023/08/08 03:50:18;;;;;;;8.00;5.07;;;;;;;;;;10317487;28;20133;-84
2023/08/08 03:55:18;;;;;;;6.10;4.45;;;;;;;;;;10322084;28;20112;-84
2023/08/08 04:00:19;;;;;;;4.97;3.60;;;;;;;;;;10323355;28;20470;-83
2023/08/08 04:05:19;;;;;;;6.60;3.80;;;;;;;;;;10325786;28;20069;-84
2023/08/08 04:10:21;;;;;;;5.30;4.20;;;;;;;;;;10333136;28;20048;-86
2023/08/08 04:15:22;;;;;;;4.97;4.18;;;;;;;;;;10324922;28;20402;-84
2023/08/08 04:20:23;;;;;;;4.20;3.80;;;;;;;;;;10310606;28;20061;-86
2023/08/08 04:25:24;;;;;;;4.35;3.95;;;;;;;;;;10332329;28;20049;-84
2023/08/08 04:30:25;;;;;;;5.15;4.57;;;;;;;;;;10325626;28;20153;-84
2023/08/08 04:35:26;;;;;;;4.88;4.10;;;;;;;;;;10327079;28;20053;-84
2023/08/08 04:40:26;;;;;;;6.50;4.67;;;;;;;;;;10343522;28;20066;-86
2023/08/08 04:45:29;;;;;;;5.32;4.18;;;;;;;;;;10371647;28;20336;-85
2023/08/08 04:50:29;;;;;;;6.65;4.47;;;;;;;;;;10370998;28;20054;-83
2023/08/08 04:55:29;;;;;;;6.93;5.20;;;;;;;;;;10313463;28;20845;-84
2023/08/08 05:00:30;;;;;;;5.47;4.70;;;;;;;;;;10305908;28;21161;-83
2023/08/08 05:05:30;;;;;;;5.85;4.90;;;;;;;;;;10321440;28;20332;-85
2023/08/08 05:10:31;;;;;;;7.97;4.70;;;;;;;;;;10321466;28;20097;-84
2023/08/08 05:15:31;;;;;;;6.22;4.47;;;;;;;;;;10323886;28;20273;-84
2023/08/08 05:20:31;;;;;;;7.13;4.85;;;;;;;;;;10309288;28;20049;-84
2023/08/08 05:25:32;;;;;;;6.00;4.33;;;;;;;;;;10313353;28;20057;-83
2023/08/08 05:30:33;;;;;;;6.50;4.47;;;;;;;;;;10334338;28;20046;-84
2023/08/08 05:35:33;;;;;;;5.72;4.22;;;;;;;;;;10316521;28;20798;-84
2023/08/08 05:40:35;;;;;;;5.80;4.47;;;;;;;;;;10332769;28;20050;-84
2023/08/08 05:45:38;;;;;;;5.50;4.27;;;;;;;;;;10327450;28;20500;-84
2023/08/08 05:50:40;;;;;;;4.53;3.70;;;;;;;;;;10309543;28;20776;-84
2023/08/08 05:55:45;;;;;;;5.90;3.70;;;;;;;;;;10332789;28;20748;-84
2023/08/08 06:00:46;;;;;;;5.47;4.00;;;;;;;;;;10326605;28;20045;-85
2023/08/08 06:05:48;;;;;;;4.88;3.72;;;;;;;;;;10320647;28;20061;-84
2023/08/08 06:10:48;;;;;;;7.18;3.80;;;;;;;;;;10328665;28;20052;-83
2023/08/08 06:15:49;;;;;;;3.90;3.10;;;;;;;;;;10327747;28;20048;-82
2023/08/08 06:20:49;;;;;;;3.90;2.83;;;;;;;;;;10314309;28;20749;-84
2023/08/08 06:25:49;;;;;;;3.63;2.60;;;;;;;;;;10311630;28;21199;-83
2023/08/08 06:30:50;;;;;;;4.20;2.50;;;;;;;;;;10326804;28;21095;-83
2023/08/08 06:35:50;;;;;;;3.97;2.25;;;;;;;;;;10307642;28;20769;-83
2023/08/08 06:40:51;;;;;;;5.20;2.50;;;;;;;;;;10317241;28;20057;-84
2023/08/08 06:45:51;;;;;;;3.38;2.17;;;;;;;;;;10325744;28;20128;-84
2023/08/08 06:50:53;;;;;;;4.05;2.15;;;;;;;;;;10311238;28;20046;-83
2023/08/08 06:55:53;;;;;;;2.50;2.03;;;;;;;;;;10331342;28;20053;-84
2023/08/08 07:00:54;;;;;;;3.10;2.10;;;;;;;;;;10332715;28;20038;-83
2023/08/08 07:05:54;;;;;;;3.40;2.00;;;;;;;;;;10358472;28;20050;-83
2023/08/08 07:10:57;;;;;;;3.30;2.30;;;;;;;;;;10378534;28;20277;-85
2023/08/08 07:15:57;;;;;;;2.73;2.23;;;;;;;;;;10377975;28;20364;-85
2023/08/08 07:20:58;;;;;;;4.68;2.47;;;;;;;;;;10368835;28;20125;-85
2023/08/08 07:25:59;;;;;;;2.53;2.03;;;;;;;;;;10368223;28;20051;-85
2023/08/08 07:30:59;;;;;;;2.95;1.90;;;;;;;;;;10373549;28;20296;-86
2023/08/08 07:36:01;;;;;;;4.47;2.10;;;;;;;;;;10358083;28;20042;-86
2023/08/08 07:41:04;;;;;;;2.90;2.00;;;;;;;;;;10324336;28;20054;-85
2023/08/08 07:46:05;;;;;;;2.20;1.88;;;;;;;;;;10318086;28;20062;-83
2023/08/08 07:51:06;;;;;;;2.97;1.70;;;;;;;;;;10317181;28;20049;-84
2023/08/08 07:56:08;;;;;;;2.90;1.80;;;;;;;;;;10325230;28;20064;-83
2023/08/08 08:01:08;;;;;;;2.57;1.80;;;;;;;;;;10335149;28;20104;-84
2023/08/08 08:06:09;;;;;;;1.50;1.40;;;;;;;;;;10354801;28;20305;-84
2023/08/08 08:11:12;;;;;;;2.08;1.67;;;;;;;;;;10353364;28;20026;-88
2023/08/08 08:16:13;;;;;;;2.20;1.60;;;;;;;;;;10325680;28;20503;-85
2023/08/08 08:21:14;;;;;;;4.68;1.70;;;;;;;;;;10324216;28;20045;-85
2023/08/08 08:26:20;;;;;;;3.22;1.73;;;;;;;;;;10335954;28;20073;-86
2023/08/08 08:31:25;;;;;;;1.77;1.45;;;;;;;;;;10318354;28;20046;-86
2023/08/08 08:36:26;;;;;;;1.83;1.05;;;;;;;;;;10318721;28;20050;-85
2023/08/08 08:41:33;;;;;;;1.55;1.27;;;;;;;;;;10358076;28;20080;-88
2023/08/08 08:46:36;;;;;;;2.22;1.25;;;;;;;;;;10373293;28;20050;-87
2023/08/08 08:51:43;;;;;;;1.58;0.93;;;;;;;;;;10352065;28;20057;-86
2023/08/08 08:56:46;;;;;;;1.80;1.38;;;;;;;;;;10343225;28;20129;-84
2023/08/08 09:01:55;;;;;;;2.05;1.05;;;;;;;;;;10350219;28;20042;-87
2023/08/08 09:06:56;;;;;;;2.03;1.30;;;;;;;;;;10350692;28;20053;-87
2023/08/08 09:11:57;;;;;;;1.45;0.93;;;;;;;;;;10347901;28;20393;-86
2023/08/08 09:16:58;;;;;;;1.83;1.33;;;;;;;;;;10347230;28;20465;-86
2023/08/08 09:22:02;;;;;;;1.52;1.00;;;;;;;;;;10331666;28;20054;-88
2023/08/08 09:27:05;;;;;;;1.63;1.20;;;;;;;;;;10358254;28;20054;-89
2023/08/08 09:32:06;;;;;;;2.30;1.30;;;;;;;;;;10343279;28;20473;-89
2023/08/08 09:37:18;;;;;;;1.75;1.48;;;;;;;;;;10339679;28;20049;-89
2023/08/08 09:42:39;;;;;;;1.75;1.40;;;;;;;;;;10333267;28;20116;-88
2023/08/08 09:47:44;;;;;;;1.70;1.20;;;;;;;;;;10344963;28;20117;-88
2023/08/08 09:52:49;;;;;;;1.75;1.15;;;;;;;;;;10352851;28;20184;-88
2023/08/08 09:58:00;;;;;;;3.20;1.60;;;;;;;;;;10351469;28;20057;-88
2023/08/08 10:03:29;;;;;;;1.80;1.30;;;;;;;;;;10360839;28;20050;-86
2023/08/08 10:08:35;;;;;;;2.28;1.27;;;;;;;;;;10381390;28;20041;-86
2023/08/08 10:13:49;;;;;;;3.70;1.40;;;;;;;;;;10370744;28;20022;-85
2023/08/08 10:18:57;;;;;;;2.42;1.30;;;;;;;;;;10337128;28;20057;-87
2023/08/08 10:24:10;;;;;;;2.13;1.40;;;;;;;;;;10358853;28;20410;-86
2023/08/08 10:29:21;;;;;;;1.90;1.38;;;;;;;;;;10421276;22;20046;-87
2023/08/08 10:34:48;;;;;;;2.55;1.25;;;;;;;;;;10594063;22;20034;-87
2023/08/08 10:39:58;;;;;;;2.78;1.55;;;;;;;;;;10355929;28;20050;-86
2023/08/08 10:45:00;;;;;;;2.40;1.50;;;;;;;;;;10366866;28;20105;-87
2023/08/08 10:50:03;;;;;;;1.67;1.50;;;;;;;;;;10645125;23;20054;-91
2023/08/08 11:00:48;;;;;;;2.80;1.63;;;;;;;;;;11792270;23;20050;-84
2023/08/08 11:11:12;;;;;;;1.60;1.10;;;;;;;;;;11137942;23;19909;-89
2023/08/08 11:16:17;;;;;;;2.25;1.60;;;;;;;;;;10831728;23;20037;-86
2023/08/08 11:21:18;;;;;;;1.98;1.35;;;;;;;;;;10391345;28;20050;-88
2023/08/08 11:26:19;;;;;;;2.47;1.58;;;;;;;;;;11173959;22;20069;-87
2023/08/08 11:31:27;;;;;;;2.00;1.38;;;;;;;;;;10352974;28;20050;-87
2023/08/08 11:36:36;;;;;;;2.40;1.30;;;;;;;;;;10451900;23;20065;-87
2023/08/08 11:41:47;;;;;;;1.65;1.40;;;;;;;;;;10348215;28;20050;-87
2023/08/08 11:46:50;;;;;;;2.15;1.13;;;;;;;;;;10329507;28;20157;-84
2023/08/08 11:51:55;;;;;;;3.00;1.50;;;;;;;;;;10365541;28;20030;-87
2023/08/08 11:56:55;;;;;;;2.58;1.50;;;;;;;;;;10386368;28;20069;-84
2023/08/08 12:01:56;;;;;;;2.65;1.67;;;;;;;;;;10374354;28;20022;-89
2023/08/08 12:07:06;;;;;;;2.45;1.75;;;;;;;;;;10307502;28;20058;-88
2023/08/08 12:12:08;;;;;;;1.40;1.30;;;;;;;;;;10317118;28;20057;-88
2023/08/08 12:17:14;;;;;;;1.83;1.50;;;;;;;;;;10323329;28;20027;-87
2023/08/08 12:22:17;;;;;;;4.90;2.25;;;;;;;;;;10309870;28;20057;-90
2023/08/08 12:27:20;;;;;;;3.70;2.25;;;;;;;;;;10305858;28;20121;-91
2023/08/08 12:32:27;;;;;;;3.30;1.60;;;;;;;;;;10294712;28;20074;-85
2023/08/08 12:37:48;;;;;;;3.30;1.50;;;;;;;;;;10306980;28;20058;-87
2023/08/08 12:42:57;;;;;;;3.30;1.80;;;;;;;;;;10305264;28;20118;-88
2023/08/08 12:47:58;;;;;;;2.72;1.52;;;;;;;;;;10296569;28;20039;-88
2023/08/08 12:53:01;;;;;;;2.00;1.35;;;;;;;;;;10324006;28;20051;-86
2023/08/08 12:58:21;;;;;;;2.67;1.42;;;;;;;;;;10308904;28;20047;-88
2023/08/08 13:03:28;;;;;;;2.03;1.45;;;;;;;;;;10308577;28;20046;-91
2023/08/08 13:08:29;;;;;;;3.00;1.60;;;;;;;;;;10303984;28;20050;-87
2023/08/08 13:13:40;;;;;;;2.53;1.63;;;;;;;;;;10284550;28;21190;-87
2023/08/08 13:18:55;;;;;;;3.83;2.00;;;;;;;;;;10308550;28;20170;-88
2023/08/08 13:24:00;;;;;;;2.10;1.20;;;;;;;;;;10281001;28;20062;-86
2023/08/08 13:29:00;;;;;;;2.15;1.58;;;;;;;;;;10262112;28;20053;-85
2023/08/08 13:34:02;;;;;;;1.87;1.43;;;;;;;;;;10276620;28;20054;-87
2023/08/08 13:39:09;;;;;;;2.30;1.70;;;;;;;;;;10309670;28;20285;-87
2023/08/08 13:44:10;;;;;;;2.10;1.10;;;;;;;;;;10289641;28;20058;-87
2023/08/08 13:49:10;;;;;;;2.08;1.35;;;;;;;;;;10315798;28;20038;-87
2023/08/08 13:54:12;;;;;;;3.38;1.38;;;;;;;;;;10325684;28;20045;-86
2023/08/08 13:59:15;;;;;;;2.77;1.40;;;;;;;;;;10315982;28;20362;-86
2023/08/08 14:04:20;;;;;;;1.70;1.38;;;;;;;;;;10322622;28;20066;-85
2023/08/08 14:09:22;;;;;;;1.30;1.10;;;;;;;;;;10290406;28;20817;-89
2023/08/08 14:14:26;;;;;;;2.92;1.45;;;;;;;;;;10322584;28;20065;-88
2023/08/08 14:19:27;;;;;;;4.13;1.40;;;;;;;;;;10306017;28;20122;-91
2023/08/08 14:24:28;;;;;;;6.43;1.90;;;;;;;;;;10607056;23;20054;-86
2023/08/08 14:29:29;;;;;;;1.70;1.30;;;;;;;;;;10348303;28;20038;-88
2023/08/08 14:34:41;;;;;;;1.77;1.40;;;;;;;;;;10300159;28;20069;-90
2023/08/08 14:39:57;;;;;;;2.30;1.40;;;;;;;;;;10311625;28;20105;-85
2023/08/08 14:44:59;;;;;;;2.75;1.40;;;;;;;;;;10292970;28;20042;-89
2023/08/08 14:50:00;;;;;;;3.35;1.60;;;;;;;;;;10305933;28;20046;-86
2023/08/08 14:55:00;;;;;;;2.55;1.50;;;;;;;;;;10315238;28;20038;-89
2023/08/08 15:00:28;;;;;;;2.20;1.45;;;;;;;;;;10310644;28;20096;-91
2023/08/08 15:05:35;;;;;;;2.35;1.50;;;;;;;;;;10304283;28;20089;-86
2023/08/08 15:10:38;;;;;;;2.33;1.50;;;;;;;;;;10318510;28;20125;-90
2023/08/08 15:15:40;;;;;;;2.33;1.45;;;;;;;;;;10314692;28;20052;-90
2023/08/08 15:21:10;;;;;;;2.35;1.23;;;;;;;;;;10315654;28;20122;-89
2023/08/08 15:26:24;;;;;;;3.22;1.42;;;;;;;;;;10324856;28;20431;-87
2023/08/08 15:31:28;;;;;;;2.05;1.60;;;;;;;;;;10332649;28;20053;-90
2023/08/08 15:36:30;;;;;;;1.70;1.27;;;;;;;;;;10350674;28;20042;-89
2023/08/08 15:41:46;;;;;;;2.00;1.20;;;;;;;;;;10336815;28;20125;-89
2023/08/08 15:46:48;;;;;;;1.95;1.30;;;;;;;;;;10365548;28;20054;-89
2023/08/08 15:51:49;;;;;;;2.53;1.40;;;;;;;;;;10366866;28;20037;-87
2023/08/08 15:56:51;;;;;;;2.60;1.50;;;;;;;;;;10348117;28;20133;-88
2023/08/08 16:01:58;;;;;;;2.70;1.05;;;;;;;;;;10320280;28;20042;-87
2023/08/08 16:07:00;;;;;;;4.10;1.52;;;;;;;;;;10348321;28;20084;-91
2023/08/08 16:12:10;;;;;;;1.83;1.20;;;;;;;;;;10360937;28;20078;-91
2023/08/08 16:17:10;;;;;;;1.45;1.20;;;;;;;;;;10330561;28;20038;-86
2023/08/08 16:22:30;;;;;;;1.92;1.10;;;;;;;;;;10314068;28;20046;-88
2023/08/08 16:27:30;;;;;;;1.65;1.23;;;;;;;;;;10342069;28;20103;-88
2023/08/08 16:32:42;;;;;;;2.60;1.52;;;;;;;;;;10336618;28;20153;-86
2023/08/08 16:37:48;;;;;;;2.38;1.35;;;;;;;;;;10336740;28;20104;-86
2023/08/08 16:42:49;;;;;;;1.80;1.40;;;;;;;;;;10353185;28;20060;-89
2023/08/08 16:47:51;;;;;;;2.40;1.33;;;;;;;;;;10370107;28;20042;-86
2023/08/08 16:52:53;;;;;;;2.22;1.60;;;;;;;;;;10381331;28;20046;-87
2023/08/08 16:57:54;;;;;;;2.17;1.40;;;;;;;;;;10350398;28;20165;-87
2023/08/08 17:02:56;;;;;;;2.00;1.38;;;;;;;;;;10343659;28;20125;-84
2023/08/08 17:08:00;;;;;;;1.55;1.20;;;;;;;;;;10363132;28;20049;-86
2023/08/08 17:13:03;;;;;;;1.90;1.27;;;;;;;;;;10357312;28;20074;-87
2023/08/08 17:18:05;;;;;;;2.55;1.70;;;;;;;;;;10329686;28;20125;-85
2023/08/08 17:23:06;;;;;;;3.37;1.50;;;;;;;;;;10349638;28;20068;-87
2023/08/08 17:28:08;;;;;;;2.92;1.20;;;;;;;;;;10360180;28;20043;-90
2023/08/08 17:33:09;;;;;;;;;;;;;;;;;;10363616;28;20050;-86
2023/08/08 17:38:12;;;;;;;1.98;1.40;;;;;;;;;;10345174;28;20684;-88
2023/08/08 17:43:16;;;;;;;1.67;1.30;;;;;;;;;;10348707;28;20074;-89
2023/08/08 17:48:16;;;;;;;3.42;1.67;;;;;;;;;;10340559;28;20216;-86
2023/08/08 17:53:21;;;;;;;2.58;1.40;;;;;;;;;;10359757;28;20058;-87
2023/08/08 17:58:25;;;;;;;3.20;1.52;;;;;;;;;;10328441;28;20054;-86
2023/08/08 18:03:28;;;;;;;1.40;1.30;;;;;;;;;;10341000;28;20053;-87
2023/08/08 18:08:28;;;;;;;1.67;1.48;;;;;;;;;;10347199;28;20042;-87
2023/08/08 18:13:29;;;;;;;2.30;1.60;;;;;;;;;;10348465;28;20110;-88
2023/08/08 18:18:30;;;;;;;1.45;1.23;;;;;;;;;;10357814;28;20052;-87
2023/08/08 18:23:35;;;;;;;1.43;1.33;;;;;;;;;;10355139;28;20144;-87
2023/08/08 18:28:36;;;;;;;2.47;1.50;;;;;;;;;;10341132;28;20049;-85
2023/08/08 18:33:42;;;;;;;1.73;1.40;;;;;;;;;;10348221;28;20551;-86
2023/08/08 18:38:44;;;;;;;2.08;1.73;;;;;;;;;;10349667;28;20704;-87
2023/08/08 18:43:44;;;;;;;2.47;1.60;;;;;;;;;;10358218;28;20051;-86
2023/08/08 18:48:52;;;;;;;2.00;1.45;;;;;;;;;;10359345;28;20050;-84
2023/08/08 18:53:54;;;;;;;3.45;1.50;;;;;;;;;;10359501;28;20046;-86
2023/08/08 18:58:54;;;;;;;2.53;1.47;;;;;;;;;;10352491;28;20046;-85
2023/08/08 19:03:57;;;;;;;2.95;1.77;;;;;;;;;;10339992;28;20490;-84
2023/08/08 19:08:57;;;;;;;1.90;1.38;;;;;;;;;;10334969;28;20046;-86
2023/08/08 19:14:03;;;;;;;2.58;1.58;;;;;;;;;;10360083;28;20367;-86
2023/08/08 19:19:05;;;;;;;1.88;1.33;;;;;;;;;;10358866;28;20149;-85
2023/08/08 19:24:06;;;;;;;;;;;;;;;;;;10343538;28;20045;-84
2023/08/08 19:29:11;;;;;;;2.90;1.48;;;;;;;;;;10351126;28;19924;-86
2023/08/08 19:34:13;;;;;;;3.00;1.70;;;;;;;;;;10338634;28;20129;-87
2023/08/08 19:39:15;;;;;;;2.28;1.42;;;;;;;;;;10304425;28;20097;-86
2023/08/08 19:44:17;;;;;;;2.42;1.50;;;;;;;;;;10327482;28;20054;-86
2023/08/08 19:49:17;;;;;;;4.78;1.98;;;;;;;;;;10334596;28;20062;-86
2023/08/08 19:54:19;;;;;;;2.67;1.90;;;;;;;;;;10342353;28;20038;-86
2023/08/08 19:59:20;;;;;;;2.17;1.50;;;;;;;;;;10347859;28;20046;-87
2023/08/08 20:04:24;;;;;;;2.80;1.83;;;;;;;;;;10344857;28;20061;-86
2023/08/08 20:09:25;;;;;;;3.05;1.75;;;;;;;;;;10347749;28;20142;-85
2023/08/08 20:14:28;;;;;;;2.60;1.60;;;;;;;;;;10359727;28;20110;-86
2023/08/08 20:19:29;;;;;;;2.30;1.80;;;;;;;;;;10363151;28;20042;-84
2023/08/08 20:25:01;;;;;;;2.40;1.90;;;;;;;;;;10363819;28;20054;-85
2023/08/08 20:30:06;;;;;;;2.50;1.90;;;;;;;;;;10348070;28;20064;-86
2023/08/08 20:35:29;;;;;;;2.33;1.73;;;;;;;;;;10337814;28;21208;-87
2023/08/08 20:40:52;;;;;;;1.92;1.67;;;;;;;;;;10348030;28;20100;-86
2023/08/08 20:45:54;;;;;;;6.35;2.45;;;;;;;;;;10348772;28;20089;-84
2023/08/08 20:56:34;;;;;;;2.03;1.83;;;;;;;;;;10348337;28;20046;-87
2023/08/08 21:01:39;;;;;;;2.45;1.60;;;;;;;;;;10350479;28;20050;-85
2023/08/08 21:06:46;;;;;;;2.15;1.67;;;;;;;;;;10385252;23;20123;-87
2023/08/08 21:23:15;;;;;;;1.80;1.60;;;;;;;;;;10392670;28;20131;-86
2023/08/08 21:28:18;;;;;;;2.27;1.70;;;;;;;;;;10381943;28;20573;-86
2023/08/08 21:33:29;;;;;;;1.83;1.58;;;;;;;;;;10383701;28;20056;-88
2023/08/08 21:38:33;;;;;;;3.30;1.80;;;;;;;;;;10375759;28;20049;-85
2023/08/08 21:43:36;;;;;;;2.70;1.83;;;;;;;;;;10370591;28;20057;-85
2023/08/08 21:48:37;;;;;;;1.88;1.77;;;;;;;;;;10357834;28;20084;-86
2023/08/08 21:54:07;;;;;;;2.50;2.05;;;;;;;;;;10353973;28;20103;-85
2023/08/08 21:59:11;;;;;;;3.58;2.00;;;;;;;;;;10363199;28;20716;-87
2023/08/08 22:04:16;;;;;;;3.13;1.92;;;;;;;;;;10373836;28;20058;-83
2023/08/08 22:09:17;;;;;;;2.70;2.40;;;;;;;;;;10366688;28;21152;-86
2023/08/08 22:14:20;;;;;;;3.80;2.50;;;;;;;;;;10376978;28;20041;-84
2023/08/08 22:19:21;;;;;;;2.55;2.17;;;;;;;;;;10357726;28;20038;-88
2023/08/08 22:24:25;;;;;;;3.77;2.40;;;;;;;;;;10354486;28;20222;-85
2023/08/08 22:29:28;;;;;;;2.55;2.20;;;;;;;;;;10375857;28;20037;-84
2023/08/08 22:34:33;;;;;;;3.05;2.30;;;;;;;;;;10391642;28;20052;-84
2023/08/08 22:39:41;;;;;;;2.30;2.10;;;;;;;;;;10347601;28;20109;-86
2023/08/08 22:44:41;;;;;;;3.28;2.05;;;;;;;;;;10374542;28;20636;-85
2023/08/08 22:49:44;;;;;;;3.97;2.75;;;;;;;;;;10367145;28;20048;-88
2023/08/08 22:54:45;;;;;;;2.97;2.00;;;;;;;;;;10384971;28;20478;-84
2023/08/08 22:59:46;;;;;;;4.00;2.40;;;;;;;;;;10371855;28;20125;-87
2023/08/08 23:04:47;;;;;;;3.63;2.40;;;;;;;;;;10376123;28;20134;-83
2023/08/08 23:09:48;;;;;;;5.72;2.53;;;;;;;;;;10391028;28;20034;-85
2023/08/08 23:14:48;;;;;;;2.10;1.80;;;;;;;;;;10393689;28;20049;-84
2023/08/08 23:19:49;;;;;;;2.25;1.92;;;;;;;;;;10398112;28;20096;-83
2023/08/08 23:24:49;;;;;;;2.53;2.00;;;;;;;;;;10371149;28;20445;-84
2023/08/08 23:29:49;;;;;;;2.30;2.10;;;;;;;;;;10378934;28;20132;-85
2023/08/08 23:34:55;;;;;;;3.23;1.83;;;;;;;;;;10373900;28;20292;-84
2023/08/08 23:39:55;;;;;;;3.20;2.25;;;;;;;;;;10373266;28;20058;-86
2023/08/08 23:44:59;;;;;;;4.43;1.90;;;;;;;;;;10378785;28;20057;-87
2023/08/08 23:50:03;;;;;;;4.60;2.42;;;;;;;;;;10378697;28;20057;-84
2023/08/08 23:55:05;;;;;;;3.05;2.20;;;;;;;;;;10361524;28;20097;-89
